• Join FlightAware (Why Join?)
  • Login
  • US Flag 
01:46PM EST


 

Airport Tracker/Info


-or-


 

Live Flight TrackerFlight Track Log ✈ DAL6035 ✈ 15-Apr-2013 ✈ KLGA - KMHT

Flight Track Log - Related Links

Times and Time Zones

All times are in EDT time to prevent confusion due to time zone crossing. See the DAL6035 flight status page for this flight to view local times or setup timezone preferences in your user account.

Time Position Orientation Groundspeed Altitude Reporting Facility
EDT Latitude Longitude Course Direction KTS MPH feet Rate Location/Type
11:28AM 40.7500 -73.8333 33° Northeast 173 199 1,800  Level New York TRACON
11:29AM 40.7333 -73.7833 114° Southeast 236 272 4,300 2,580 Climbing New York TRACON
11:30AM 40.8000 -73.7333 30° Northeast 255 293 7,000 2,700 Climbing New York TRACON
11:31AM 40.8667 -73.6833 30° Northeast 271 312 9,700 2,220 Climbing New York TRACON
11:32AM 40.9333 -73.6333 30° Northeast 295 339 11,300 1,680 Climbing New York TRACON
11:33AM 41.0167 -73.5833 24° Northeast 340 391 12,900 1,620 Climbing New York TRACON
11:34AM 41.1540 -73.5653 33° Northeast  Level FlightAware Approximate
11:35AM 41.1806 -73.4714 27° Northeast 351 404 16,400  Level Boston Center
11:36AM 41.2731 -73.4067 28° Northeast 357 411 17,000 300 Climbing Boston Center
11:37AM 41.3714 -73.3364 28° Northeast 382 440 17,000  Level Boston Center
11:38AM 41.4617 -73.2739 27° Northeast 383 441 17,000  Level Boston Center
11:39AM 41.5494 -73.2111 28° Northeast 363 418 17,000  Level Boston Center
11:41AM 41.6333 -73.1483 29° Northeast 352 405 17,000  Level Boston Center
11:42AM 41.7275 -73.0797 29° Northeast 352 405 17,000  Level Boston Center
11:43AM 41.8217 -73.0111 28° Northeast 347 399 17,000  Level Boston Center
11:44AM 41.8969 -72.9589 27° Northeast 342 394 17,000  Level Boston Center
11:45AM 41.9786 -72.8981 29° Northeast 337 388 17,000  Level Boston Center
11:46AM 42.0872 -72.8178 29° Northeast 337 388 17,000  Level Boston Center
11:47AM 42.1539 -72.7678 29° Northeast 337 388 17,000  Level Boston Center
11:48AM 42.2542 -72.6925 29° Northeast 332 382 17,000  Level Boston Center
11:49AM 42.3461 -72.6283 27° Northeast 332 382 17,100  Climbing Boston Center
11:50AM 42.4128 -72.5414 44° Northeast 332 382 17,000 -420 Descending Boston Center
11:51AM 42.4650 -72.4597 49° Northeast 332 382 16,300 -1,440 Descending Boston Center
11:52AM 42.5525 -72.3244 49° Northeast 355 409 14,200 -1,860 Descending Boston Center
11:53AM 42.6192 -72.2286 47° Northeast 355 409 12,700 -1,500 Descending Boston Center
11:54AM 42.6772 -72.1408 48° Northeast 355 409 11,300 -1,500 Descending Boston Center
11:55AM 42.7394 -72.0472 48° Northeast 313 360 9,700 -1,380 Descending Boston Center
11:56AM 42.7789 -71.9819 51° Northeast 286 329 8,600 -1,500 Descending Boston Center
11:57AM 42.8261 -71.8625 62° Northeast 258 297 6,500 -1,740 Descending Boston Center
11:58AM 42.8611 -71.7831 59° Northeast 243 280 4,800 -1,560 Descending Boston Center
11:59AM 42.8814 -71.6950 73° East 238 274 3,400 -1,080 Descending Boston Center
12:00PM 42.8933 -71.6153 78° East 216 249 2,700 -840 Descending Boston Center
12:01PM 42.8969 -71.5417 86° East 205 236 1,800 -900 Descending Boston Center
12:02PM 42.9050 -71.4878 78° East 155 178 900 -720 Descending Boston Center
12:03PM 42.9256 -71.4533 51° Northeast 136 157 400 7,980 Descending Boston Center
12:04PM 42.9375 -71.3936 75° East 136 157 17,000 8,220 Climbing Boston Center
12:05PM 42.9517 -71.3453 68° East 136 157 17,000  Level Boston Center
12:07PM 42.9167 -71.4333 316° Northwest  Level FlightAware Approximate
12:07PM 42.9797 -71.2539 316° Northwest 136 157 17,000  Level Boston Center